sensor_id;sensor_type;location;lat;lon;timestamp;temperature;humidity
16273;DHT22;8244;50.044;9.006;2022-12-29T00:02:34;11.00;99.90
16273;DHT22;8244;50.044;9.006;2022-12-29T00:07:37;11.00;99.90
16273;DHT22;8244;50.044;9.006;2022-12-29T00:12:38;11.10;99.90
16273;DHT22;8244;50.044;9.006;2022-12-29T00:17:58;11.10;99.90
16273;DHT22;8244;50.044;9.006;2022-12-29T00:23:01;11.20;99.90
16273;DHT22;8244;50.044;9.006;2022-12-29T00:28:20;11.20;99.90
16273;DHT22;8244;50.044;9.006;2022-12-29T00:33:39;11.30;99.90
16273;DHT22;8244;50.044;9.006;2022-12-29T00:39:02;11.40;99.90
16273;DHT22;8244;50.044;9.006;2022-12-29T00:44:21;11.40;99.90
16273;DHT22;8244;50.044;9.006;2022-12-29T00:49:23;11.50;99.90
16273;DHT22;8244;50.044;9.006;2022-12-29T00:54:37;11.50;99.90
16273;DHT22;8244;50.044;9.006;2022-12-29T00:59:40;11.40;99.90
16273;DHT22;8244;50.044;9.006;2022-12-29T01:04:42;11.30;99.90
16273;DHT22;8244;50.044;9.006;2022-12-29T01:09:45;11.20;99.90
16273;DHT22;8244;50.044;9.006;2022-12-29T01:15:05;11.10;99.90
16273;DHT22;8244;50.044;9.006;2022-12-29T01:20:08;10.90;99.90
16273;DHT22;8244;50.044;9.006;2022-12-29T01:25:11;10.70;99.90
16273;DHT22;8244;50.044;9.006;2022-12-29T01:30:12;10.60;99.90
16273;DHT22;8244;50.044;9.006;2022-12-29T01:35:14;10.50;99.90
16273;DHT22;8244;50.044;9.006;2022-12-29T01:40:17;10.40;99.90
16273;DHT22;8244;50.044;9.006;2022-12-29T01:45:20;10.40;99.90
16273;DHT22;8244;50.044;9.006;2022-12-29T01:50:26;10.30;99.90
16273;DHT22;8244;50.044;9.006;2022-12-29T01:55:33;10.20;99.90
16273;DHT22;8244;50.044;9.006;2022-12-29T02:00:36;10.20;99.90
16273;DHT22;8244;50.044;9.006;2022-12-29T02:05:42;10.10;99.90
16273;DHT22;8244;50.044;9.006;2022-12-29T02:10:47;10.10;99.90
16273;DHT22;8244;50.044;9.006;2022-12-29T02:15:56;10.10;99.90
16273;DHT22;8244;50.044;9.006;2022-12-29T02:21:29;10.00;99.90
16273;DHT22;8244;50.044;9.006;2022-12-29T02:26:47;10.00;99.90
16273;DHT22;8244;50.044;9.006;2022-12-29T02:31:57;10.00;99.90
16273;DHT22;8244;50.044;9.006;2022-12-29T02:37:04;10.00;99.90
16273;DHT22;8244;50.044;9.006;2022-12-29T02:42:15;10.00;99.90
16273;DHT22;8244;50.044;9.006;2022-12-29T02:47:24;10.00;99.90
16273;DHT22;8244;50.044;9.006;2022-12-29T02:52:31;10.00;99.90
16273;DHT22;8244;50.044;9.006;2022-12-29T02:57:35;10.10;99.90
16273;DHT22;8244;50.044;9.006;2022-12-29T03:03:06;10.10;99.90
16273;DHT22;8244;50.044;9.006;2022-12-29T03:08:17;10.20;99.90
16273;DHT22;8244;50.044;9.006;2022-12-29T03:13:26;10.30;99.90
16273;DHT22;8244;50.044;9.006;2022-12-29T03:18:53;10.30;99.90
16273;DHT22;8244;50.044;9.006;2022-12-29T03:23:57;10.30;99.90
16273;DHT22;8244;50.044;9.006;2022-12-29T03:28:59;10.40;99.90
16273;DHT22;8244;50.044;9.006;2022-12-29T03:34:04;10.40;99.90
16273;DHT22;8244;50.044;9.006;2022-12-29T03:39:09;10.50;99.90
16273;DHT22;8244;50.044;9.006;2022-12-29T03:44:13;10.50;99.90
16273;DHT22;8244;50.044;9.006;2022-12-29T03:49:16;10.50;99.90
16273;DHT22;8244;50.044;9.006;2022-12-29T03:54:17;10.60;99.90
16273;DHT22;8244;50.044;9.006;2022-12-29T03:59:19;10.60;99.90
16273;DHT22;8244;50.044;9.006;2022-12-29T04:04:22;10.60;99.90
16273;DHT22;8244;50.044;9.006;2022-12-29T04:09:24;10.70;99.90
16273;DHT22;8244;50.044;9.006;2022-12-29T04:14:25;10.70;99.90
16273;DHT22;8244;50.044;9.006;2022-12-29T04:19:28;10.70;99.90
16273;DHT22;8244;50.044;9.006;2022-12-29T04:24:30;10.70;99.90
16273;DHT22;8244;50.044;9.006;2022-12-29T04:29:31;10.80;99.90
16273;DHT22;8244;50.044;9.006;2022-12-29T04:34:34;10.80;99.90
16273;DHT22;8244;50.044;9.006;2022-12-29T04:39:36;10.80;99.90
16273;DHT22;8244;50.044;9.006;2022-12-29T04:44:38;10.80;99.90
16273;DHT22;8244;50.044;9.006;2022-12-29T04:49:41;10.90;99.90
16273;DHT22;8244;50.044;9.006;2022-12-29T04:54:42;10.90;99.90
16273;DHT22;8244;50.044;9.006;2022-12-29T04:59:44;11.00;99.90
16273;DHT22;8244;50.044;9.006;2022-12-29T05:04:47;11.00;99.90
16273;DHT22;8244;50.044;9.006;2022-12-29T05:09:49;11.10;99.90
16273;DHT22;8244;50.044;9.006;2022-12-29T05:14:50;11.10;99.90
16273;DHT22;8244;50.044;9.006;2022-12-29T05:19:53;11.20;99.90
16273;DHT22;8244;50.044;9.006;2022-12-29T05:24:55;11.20;99.90
16273;DHT22;8244;50.044;9.006;2022-12-29T05:29:56;11.10;99.90
16273;DHT22;8244;50.044;9.006;2022-12-29T05:34:59;11.20;99.90
16273;DHT22;8244;50.044;9.006;2022-12-29T05:40:01;11.20;99.90
16273;DHT22;8244;50.044;9.006;2022-12-29T05:45:03;11.20;99.90
16273;DHT22;8244;50.044;9.006;2022-12-29T05:50:09;11.10;99.90
16273;DHT22;8244;50.044;9.006;2022-12-29T05:55:11;11.20;99.90
16273;DHT22;8244;50.044;9.006;2022-12-29T06:00:13;11.20;99.90
16273;DHT22;8244;50.044;9.006;2022-12-29T06:05:19;11.20;99.90
16273;DHT22;8244;50.044;9.006;2022-12-29T06:10:21;11.20;99.90
16273;DHT22;8244;50.044;9.006;2022-12-29T06:15:22;11.30;99.90
16273;DHT22;8244;50.044;9.006;2022-12-29T06:20:25;11.30;99.90
16273;DHT22;8244;50.044;9.006;2022-12-29T06:25:27;11.40;99.90
16273;DHT22;8244;50.044;9.006;2022-12-29T06:30:31;11.30;99.90
16273;DHT22;8244;50.044;9.006;2022-12-29T06:35:34;11.30;99.90
16273;DHT22;8244;50.044;9.006;2022-12-29T06:40:36;11.40;99.90
16273;DHT22;8244;50.044;9.006;2022-12-29T06:45:38;11.50;99.90
16273;DHT22;8244;50.044;9.006;2022-12-29T06:50:48;11.50;99.90
16273;DHT22;8244;50.044;9.006;2022-12-29T06:55:50;11.50;99.90
16273;DHT22;8244;50.044;9.006;2022-12-29T07:00:51;11.60;99.90
16273;DHT22;8244;50.044;9.006;2022-12-29T07:05:54;11.60;99.90
16273;DHT22;8244;50.044;9.006;2022-12-29T07:10:58;11.60;99.90
16273;DHT22;8244;50.044;9.006;2022-12-29T07:16:05;11.60;99.90
16273;DHT22;8244;50.044;9.006;2022-12-29T07:21:08;11.60;99.90
16273;DHT22;8244;50.044;9.006;2022-12-29T07:26:12;11.60;99.90
16273;DHT22;8244;50.044;9.006;2022-12-29T07:31:15;11.60;99.90
16273;DHT22;8244;50.044;9.006;2022-12-29T07:36:18;11.60;99.90
16273;DHT22;8244;50.044;9.006;2022-12-29T07:41:20;11.60;99.90
16273;DHT22;8244;50.044;9.006;2022-12-29T07:46:22;11.60;99.90
16273;DHT22;8244;50.044;9.006;2022-12-29T07:51:25;11.60;99.90
16273;DHT22;8244;50.044;9.006;2022-12-29T07:56:26;11.50;99.90
16273;DHT22;8244;50.044;9.006;2022-12-29T08:01:28;11.40;99.90
16273;DHT22;8244;50.044;9.006;2022-12-29T08:06:31;11.40;99.90
16273;DHT22;8244;50.044;9.006;2022-12-29T08:11:33;11.40;99.90
16273;DHT22;8244;50.044;9.006;2022-12-29T08:16:36;11.40;99.90
16273;DHT22;8244;50.044;9.006;2022-12-29T08:21:39;11.40;99.90
16273;DHT22;8244;50.044;9.006;2022-12-29T08:26:41;11.50;99.90
16273;DHT22;8244;50.044;9.006;2022-12-29T08:31:43;11.40;99.90
16273;DHT22;8244;50.044;9.006;2022-12-29T08:36:46;11.50;99.90
16273;DHT22;8244;50.044;9.006;2022-12-29T08:41:48;11.40;99.90
16273;DHT22;8244;50.044;9.006;2022-12-29T08:46:50;11.50;99.90
16273;DHT22;8244;50.044;9.006;2022-12-29T08:51:53;11.50;99.90
16273;DHT22;8244;50.044;9.006;2022-12-29T08:56:54;11.50;99.90
16273;DHT22;8244;50.044;9.006;2022-12-29T09:01:56;11.60;99.90
16273;DHT22;8244;50.044;9.006;2022-12-29T09:06:59;11.60;99.90
16273;DHT22;8244;50.044;9.006;2022-12-29T09:12:01;11.70;99.90
16273;DHT22;8244;50.044;9.006;2022-12-29T09:17:02;11.70;99.90
16273;DHT22;8244;50.044;9.006;2022-12-29T09:22:23;11.70;99.90
16273;DHT22;8244;50.044;9.006;2022-12-29T09:27:24;11.80;99.90
16273;DHT22;8244;50.044;9.006;2022-12-29T09:32:26;11.90;99.90
16273;DHT22;8244;50.044;9.006;2022-12-29T09:37:29;12.00;99.90
16273;DHT22;8244;50.044;9.006;2022-12-29T09:42:37;12.10;99.90
16273;DHT22;8244;50.044;9.006;2022-12-29T09:47:41;12.10;99.90
16273;DHT22;8244;50.044;9.006;2022-12-29T09:52:48;12.10;99.90
16273;DHT22;8244;50.044;9.006;2022-12-29T09:57:55;12.10;99.90
16273;DHT22;8244;50.044;9.006;2022-12-29T10:03:02;12.00;99.90
16273;DHT22;8244;50.044;9.006;2022-12-29T10:08:17;12.00;99.90
16273;DHT22;8244;50.044;9.006;2022-12-29T10:13:28;12.10;99.90
16273;DHT22;8244;50.044;9.006;2022-12-29T10:18:46;12.10;99.90
16273;DHT22;8244;50.044;9.006;2022-12-29T10:23:56;12.20;99.90
16273;DHT22;8244;50.044;9.006;2022-12-29T10:29:02;12.20;99.90
16273;DHT22;8244;50.044;9.006;2022-12-29T10:34:12;12.20;99.90
16273;DHT22;8244;50.044;9.006;2022-12-29T10:39:22;12.10;99.90
16273;DHT22;8244;50.044;9.006;2022-12-29T10:44:30;11.80;99.90
16273;DHT22;8244;50.044;9.006;2022-12-29T10:49:37;11.40;99.90
16273;DHT22;8244;50.044;9.006;2022-12-29T10:54:47;11.00;99.90
16273;DHT22;8244;50.044;9.006;2022-12-29T10:59:50;10.90;99.90
16273;DHT22;8244;50.044;9.006;2022-12-29T11:04:57;10.90;99.90
16273;DHT22;8244;50.044;9.006;2022-12-29T11:10:19;10.80;99.90
16273;DHT22;8244;50.044;9.006;2022-12-29T11:15:21;10.80;99.90
16273;DHT22;8244;50.044;9.006;2022-12-29T11:20:29;10.90;99.90
16273;DHT22;8244;50.044;9.006;2022-12-29T11:25:32;11.10;99.90
16273;DHT22;8244;50.044;9.006;2022-12-29T11:30:34;11.20;99.90
16273;DHT22;8244;50.044;9.006;2022-12-29T11:35:40;11.20;99.90
16273;DHT22;8244;50.044;9.006;2022-12-29T11:40:43;11.20;99.90
16273;DHT22;8244;50.044;9.006;2022-12-29T11:45:46;11.30;99.90
16273;DHT22;8244;50.044;9.006;2022-12-29T11:50:51;11.30;99.90
16273;DHT22;8244;50.044;9.006;2022-12-29T11:55:57;11.40;99.90
16273;DHT22;8244;50.044;9.006;2022-12-29T12:01:02;11.50;99.90
16273;DHT22;8244;50.044;9.006;2022-12-29T12:06:07;11.50;99.90
16273;DHT22;8244;50.044;9.006;2022-12-29T12:11:17;11.70;99.90
16273;DHT22;8244;50.044;9.006;2022-12-29T12:16:24;11.70;99.90
16273;DHT22;8244;50.044;9.006;2022-12-29T12:21:32;11.80;99.90
16273;DHT22;8244;50.044;9.006;2022-12-29T12:26:41;11.80;99.90
16273;DHT22;8244;50.044;9.006;2022-12-29T12:31:47;11.90;99.90
16273;DHT22;8244;50.044;9.006;2022-12-29T12:42:33;11.90;99.90
16273;DHT22;8244;50.044;9.006;2022-12-29T12:47:47;12.00;99.90
16273;DHT22;8244;50.044;9.006;2022-12-29T12:53:21;11.90;99.90
16273;DHT22;8244;50.044;9.006;2022-12-29T12:58:32;11.90;99.90
16273;DHT22;8244;50.044;9.006;2022-12-29T13:03:47;12.00;99.90
16273;DHT22;8244;50.044;9.006;2022-12-29T13:14:26;12.10;99.90
16273;DHT22;8244;50.044;9.006;2022-12-29T13:19:32;12.20;99.90
16273;DHT22;8244;50.044;9.006;2022-12-29T13:24:47;12.20;99.90
16273;DHT22;8244;50.044;9.006;2022-12-29T13:30:00;12.30;99.90
16273;DHT22;8244;50.044;9.006;2022-12-29T13:35:13;12.20;99.90
16273;DHT22;8244;50.044;9.006;2022-12-29T13:40:23;12.30;99.90
16273;DHT22;8244;50.044;9.006;2022-12-29T13:45:30;12.20;99.90
16273;DHT22;8244;50.044;9.006;2022-12-29T13:50:36;12.20;99.90
16273;DHT22;8244;50.044;9.006;2022-12-29T13:55:44;12.20;99.90
16273;DHT22;8244;50.044;9.006;2022-12-29T14:00:53;12.20;99.90
16273;DHT22;8244;50.044;9.006;2022-12-29T14:06:10;12.20;99.90
16273;DHT22;8244;50.044;9.006;2022-12-29T14:11:15;12.10;99.90
16273;DHT22;8244;50.044;9.006;2022-12-29T14:16:30;12.10;99.90
16273;DHT22;8244;50.044;9.006;2022-12-29T14:21:32;12.10;99.90
16273;DHT22;8244;50.044;9.006;2022-12-29T14:26:35;12.10;99.90
16273;DHT22;8244;50.044;9.006;2022-12-29T14:31:38;12.10;99.90
16273;DHT22;8244;50.044;9.006;2022-12-29T14:36:52;12.00;99.90
16273;DHT22;8244;50.044;9.006;2022-12-29T14:41:59;12.00;99.90
16273;DHT22;8244;50.044;9.006;2022-12-29T14:47:05;12.00;99.90
16273;DHT22;8244;50.044;9.006;2022-12-29T14:52:15;12.00;99.90
16273;DHT22;8244;50.044;9.006;2022-12-29T14:57:37;12.00;99.90
16273;DHT22;8244;50.044;9.006;2022-12-29T15:02:46;12.00;99.90
16273;DHT22;8244;50.044;9.006;2022-12-29T15:07:49;11.90;99.90
16273;DHT22;8244;50.044;9.006;2022-12-29T15:12:53;11.80;99.90
16273;DHT22;8244;50.044;9.006;2022-12-29T15:17:56;11.70;99.90
16273;DHT22;8244;50.044;9.006;2022-12-29T15:23:02;11.70;99.90
16273;DHT22;8244;50.044;9.006;2022-12-29T15:28:06;11.60;99.90
16273;DHT22;8244;50.044;9.006;2022-12-29T15:33:18;11.50;99.90
16273;DHT22;8244;50.044;9.006;2022-12-29T15:38:22;11.40;99.90
16273;DHT22;8244;50.044;9.006;2022-12-29T15:43:36;11.30;99.90
16273;DHT22;8244;50.044;9.006;2022-12-29T15:48:41;11.10;99.90
16273;DHT22;8244;50.044;9.006;2022-12-29T15:53:47;11.00;99.90
16273;DHT22;8244;50.044;9.006;2022-12-29T15:58:51;10.90;99.90
16273;DHT22;8244;50.044;9.006;2022-12-29T16:03:54;10.70;99.90
16273;DHT22;8244;50.044;9.006;2022-12-29T16:08:59;10.60;99.90
16273;DHT22;8244;50.044;9.006;2022-12-29T16:14:01;10.50;99.90
16273;DHT22;8244;50.044;9.006;2022-12-29T16:19:13;10.30;99.90
16273;DHT22;8244;50.044;9.006;2022-12-29T16:24:17;10.30;99.90
16273;DHT22;8244;50.044;9.006;2022-12-29T16:29:20;10.20;99.90
16273;DHT22;8244;50.044;9.006;2022-12-29T16:34:26;10.10;99.90
16273;DHT22;8244;50.044;9.006;2022-12-29T16:39:36;10.00;99.90
16273;DHT22;8244;50.044;9.006;2022-12-29T16:44:39;9.90;99.90
16273;DHT22;8244;50.044;9.006;2022-12-29T16:49:46;9.80;99.90
16273;DHT22;8244;50.044;9.006;2022-12-29T16:54:53;9.70;99.90
16273;DHT22;8244;50.044;9.006;2022-12-29T16:59:58;9.70;99.90
16273;DHT22;8244;50.044;9.006;2022-12-29T17:05:02;9.60;99.90
16273;DHT22;8244;50.044;9.006;2022-12-29T17:10:04;9.50;99.90
16273;DHT22;8244;50.044;9.006;2022-12-29T17:15:10;9.40;99.90
16273;DHT22;8244;50.044;9.006;2022-12-29T17:20:19;9.30;99.90
16273;DHT22;8244;50.044;9.006;2022-12-29T17:25:32;9.30;99.90
16273;DHT22;8244;50.044;9.006;2022-12-29T17:30:34;9.30;99.90
16273;DHT22;8244;50.044;9.006;2022-12-29T17:35:37;9.20;99.90
16273;DHT22;8244;50.044;9.006;2022-12-29T17:40:39;9.20;99.90
16273;DHT22;8244;50.044;9.006;2022-12-29T17:45:42;9.20;99.90
16273;DHT22;8244;50.044;9.006;2022-12-29T17:50:46;9.10;99.90
16273;DHT22;8244;50.044;9.006;2022-12-29T17:55:49;9.00;99.90
16273;DHT22;8244;50.044;9.006;2022-12-29T18:00:52;9.00;99.90
16273;DHT22;8244;50.044;9.006;2022-12-29T18:05:56;9.00;99.90
16273;DHT22;8244;50.044;9.006;2022-12-29T18:10:58;8.90;99.90
16273;DHT22;8244;50.044;9.006;2022-12-29T18:16:00;8.90;99.90
16273;DHT22;8244;50.044;9.006;2022-12-29T18:21:03;8.90;99.90
16273;DHT22;8244;50.044;9.006;2022-12-29T18:26:10;8.90;99.90
16273;DHT22;8244;50.044;9.006;2022-12-29T18:31:17;9.00;99.90
16273;DHT22;8244;50.044;9.006;2022-12-29T18:36:24;9.00;99.90
16273;DHT22;8244;50.044;9.006;2022-12-29T18:41:27;9.10;99.90
16273;DHT22;8244;50.044;9.006;2022-12-29T18:46:29;9.10;99.90
16273;DHT22;8244;50.044;9.006;2022-12-29T18:51:32;9.20;99.90
16273;DHT22;8244;50.044;9.006;2022-12-29T18:56:34;9.20;99.90
16273;DHT22;8244;50.044;9.006;2022-12-29T19:01:36;9.20;99.90
16273;DHT22;8244;50.044;9.006;2022-12-29T19:06:39;9.20;99.90
16273;DHT22;8244;50.044;9.006;2022-12-29T19:11:40;9.20;99.90
16273;DHT22;8244;50.044;9.006;2022-12-29T19:16:42;9.20;99.90
16273;DHT22;8244;50.044;9.006;2022-12-29T19:21:45;9.30;99.90
16273;DHT22;8244;50.044;9.006;2022-12-29T19:26:47;9.30;99.90
16273;DHT22;8244;50.044;9.006;2022-12-29T19:31:48;9.20;99.90
16273;DHT22;8244;50.044;9.006;2022-12-29T19:36:51;9.10;99.90
16273;DHT22;8244;50.044;9.006;2022-12-29T19:41:53;9.10;99.90
16273;DHT22;8244;50.044;9.006;2022-12-29T19:46:55;9.10;99.90
16273;DHT22;8244;50.044;9.006;2022-12-29T19:51:58;9.10;99.90
16273;DHT22;8244;50.044;9.006;2022-12-29T19:57:00;9.10;99.90
16273;DHT22;8244;50.044;9.006;2022-12-29T20:02:01;9.10;99.90
16273;DHT22;8244;50.044;9.006;2022-12-29T20:07:04;9.10;99.90
16273;DHT22;8244;50.044;9.006;2022-12-29T20:12:06;9.10;99.90
16273;DHT22;8244;50.044;9.006;2022-12-29T20:17:09;9.20;99.90
16273;DHT22;8244;50.044;9.006;2022-12-29T20:22:13;9.10;99.90
16273;DHT22;8244;50.044;9.006;2022-12-29T20:27:15;9.20;99.90
16273;DHT22;8244;50.044;9.006;2022-12-29T20:32:19;9.20;99.90
16273;DHT22;8244;50.044;9.006;2022-12-29T20:37:22;9.20;99.90
16273;DHT22;8244;50.044;9.006;2022-12-29T20:42:24;9.20;99.90
16273;DHT22;8244;50.044;9.006;2022-12-29T20:47:26;9.20;99.90
16273;DHT22;8244;50.044;9.006;2022-12-29T20:52:29;9.20;99.90
16273;DHT22;8244;50.044;9.006;2022-12-29T20:57:30;9.20;99.90
16273;DHT22;8244;50.044;9.006;2022-12-29T21:02:32;9.20;99.90
16273;DHT22;8244;50.044;9.006;2022-12-29T21:07:35;9.20;99.90
16273;DHT22;8244;50.044;9.006;2022-12-29T21:12:37;9.20;99.90
16273;DHT22;8244;50.044;9.006;2022-12-29T21:17:39;9.20;99.90
16273;DHT22;8244;50.044;9.006;2022-12-29T21:22:42;9.20;99.90
16273;DHT22;8244;50.044;9.006;2022-12-29T21:27:44;9.20;99.90
16273;DHT22;8244;50.044;9.006;2022-12-29T21:32:46;9.10;99.90
16273;DHT22;8244;50.044;9.006;2022-12-29T21:37:49;9.10;99.90
16273;DHT22;8244;50.044;9.006;2022-12-29T21:42:51;9.20;99.90
16273;DHT22;8244;50.044;9.006;2022-12-29T21:47:53;9.20;99.90
16273;DHT22;8244;50.044;9.006;2022-12-29T21:53:14;9.10;99.90
16273;DHT22;8244;50.044;9.006;2022-12-29T21:58:18;9.20;99.90
16273;DHT22;8244;50.044;9.006;2022-12-29T22:03:38;9.10;99.90
16273;DHT22;8244;50.044;9.006;2022-12-29T22:09:00;9.10;99.90
16273;DHT22;8244;50.044;9.006;2022-12-29T22:14:19;9.00;99.90
16273;DHT22;8244;50.044;9.006;2022-12-29T22:19:21;9.00;99.90
16273;DHT22;8244;50.044;9.006;2022-12-29T22:24:24;9.00;99.90
16273;DHT22;8244;50.044;9.006;2022-12-29T22:29:26;8.90;99.90
16273;DHT22;8244;50.044;9.006;2022-12-29T22:34:28;8.80;99.90
16273;DHT22;8244;50.044;9.006;2022-12-29T22:39:31;8.80;99.90
16273;DHT22;8244;50.044;9.006;2022-12-29T22:44:32;8.80;99.90
16273;DHT22;8244;50.044;9.006;2022-12-29T22:49:34;8.80;99.90
16273;DHT22;8244;50.044;9.006;2022-12-29T22:54:37;8.70;99.90
16273;DHT22;8244;50.044;9.006;2022-12-29T22:59:39;8.70;99.90
16273;DHT22;8244;50.044;9.006;2022-12-29T23:04:41;8.60;99.90
16273;DHT22;8244;50.044;9.006;2022-12-29T23:09:44;8.60;99.90
16273;DHT22;8244;50.044;9.006;2022-12-29T23:14:45;8.50;99.90
16273;DHT22;8244;50.044;9.006;2022-12-29T23:19:47;8.50;99.90
16273;DHT22;8244;50.044;9.006;2022-12-29T23:24:50;8.40;99.90
16273;DHT22;8244;50.044;9.006;2022-12-29T23:29:51;8.30;99.90
16273;DHT22;8244;50.044;9.006;2022-12-29T23:34:53;8.30;99.90
16273;DHT22;8244;50.044;9.006;2022-12-29T23:39:56;8.30;99.90
16273;DHT22;8244;50.044;9.006;2022-12-29T23:44:57;8.20;99.90
16273;DHT22;8244;50.044;9.006;2022-12-29T23:49:59;8.20;99.90
16273;DHT22;8244;50.044;9.006;2022-12-29T23:55:02;8.00;99.90
